EWL3MD LEPA-EDDG
Flight info
| Callsign | EWL3MD |
|---|---|
| Flight time | N/A |
| Altitude | 36000 |
| Route | MEROS N853 LUMAS DCT MAXIR DCT LUSOL DCT BODRU DCT OKTET DCT IRMAR DCT KINES DCT VANAS DCT MOBLO DCT UBIMA DCT GILIR DCT PENDU DCT IXILU DCT EPL DCT ROUSY DCT DIK T856 QATJA N853 HMM HMM1A |
| Aircraft | A320/M-SDE3FGHIRWY/LB1 |
Departure
| Time | 2026-05-05 19:08 |
|---|---|
| Airport | Palma de Mallorca Airport (LEPA) |
Arrival
| Time | N/A |
|---|---|
| Airport | Münster Osnabrück Airport (EDDG) |
| Time | Latitude | Longitude | Altitude | Speed | Heading |
|---|---|---|---|---|---|
| 2026-05-05 18:40 | 39.54988 | 2.73320 | 42 ft | 0 kts | 186° |
| 2026-05-05 18:57 | 39.54997 | 2.73321 | 41 ft | 2 kts | 186° |
| 2026-05-05 18:57 | 39.55006 | 2.73323 | 42 ft | 2 kts | 186° |
| 2026-05-05 18:57 | 39.55021 | 2.73319 | 43 ft | 2 kts | 148° |
| 2026-05-05 18:58 | 39.55032 | 2.73305 | 43 ft | 2 kts | 118° |
| 2026-05-05 18:58 | 39.55035 | 2.73295 | 43 ft | 0 kts | 101° |
| 2026-05-05 18:58 | 39.55036 | 2.73285 | 42 ft | 0 kts | 98° |
| 2026-05-05 19:02 | 39.55034 | 2.73304 | 40 ft | 3 kts | 98° |
| 2026-05-05 19:02 | 39.55032 | 2.73346 | 40 ft | 5 kts | 89° |
| 2026-05-05 19:02 | 39.55043 | 2.73404 | 40 ft | 7 kts | 64° |
| 2026-05-05 19:03 | 39.55072 | 2.73468 | 41 ft | 8 kts | 59° |
| 2026-05-05 19:03 | 39.55106 | 2.73542 | 41 ft | 10 kts | 59° |
| 2026-05-05 19:03 | 39.55145 | 2.73624 | 41 ft | 11 kts | 59° |
| 2026-05-05 19:03 | 39.55175 | 2.73708 | 41 ft | 10 kts | 91° |
| 2026-05-05 19:04 | 39.55174 | 2.73798 | 41 ft | 10 kts | 62° |
| 2026-05-05 19:04 | 39.55240 | 2.73794 | 41 ft | 11 kts | 329° |
| 2026-05-05 19:04 | 39.55312 | 2.73738 | 41 ft | 12 kts | 328° |
| 2026-05-05 19:04 | 39.55387 | 2.73677 | 41 ft | 13 kts | 328° |
| 2026-05-05 19:05 | 39.55468 | 2.73613 | 41 ft | 13 kts | 328° |
| 2026-05-05 19:05 | 39.55552 | 2.73546 | 41 ft | 14 kts | 329° |
| 2026-05-05 19:05 | 39.55645 | 2.73508 | 41 ft | 14 kts | 27° |
| 2026-05-05 19:05 | 39.55708 | 2.73612 | 41 ft | 15 kts | 58° |
| 2026-05-05 19:06 | 39.55763 | 2.73730 | 41 ft | 15 kts | 60° |
| 2026-05-05 19:06 | 39.55819 | 2.73852 | 42 ft | 15 kts | 58° |
| 2026-05-05 19:06 | 39.55878 | 2.73976 | 42 ft | 16 kts | 58° |
| 2026-05-05 19:06 | 39.55937 | 2.74102 | 42 ft | 16 kts | 59° |
| 2026-05-05 19:07 | 39.56007 | 2.74222 | 42 ft | 16 kts | 44° |
| 2026-05-05 19:07 | 39.56104 | 2.74307 | 42 ft | 16 kts | 34° |
| 2026-05-05 19:07 | 39.56211 | 2.74349 | 42 ft | 16 kts | 329° |
| 2026-05-05 19:07 | 39.56170 | 2.74147 | 42 ft | 51 kts | 238° |
| 2026-05-05 19:08 | 39.55859 | 2.73492 | 42 ft | 115 kts | 239° |
| 2026-05-05 19:08 | 39.55344 | 2.72411 | 51 ft | 164 kts | 237° |
| 2026-05-05 19:08 | 39.54736 | 2.71138 | 517 ft | 167 kts | 238° |
| 2026-05-05 19:08 | 39.54121 | 2.69842 | 1032 ft | 170 kts | 238° |
| 2026-05-05 19:09 | 39.53500 | 2.68547 | 1564 ft | 171 kts | 239° |
| 2026-05-05 19:09 | 39.52859 | 2.67215 | 1993 ft | 180 kts | 239° |
| 2026-05-05 19:09 | 39.52148 | 2.65734 | 2309 ft | 199 kts | 239° |
| 2026-05-05 19:09 | 39.51363 | 2.64102 | 2632 ft | 219 kts | 239° |
| 2026-05-05 19:10 | 39.50542 | 2.62402 | 3231 ft | 225 kts | 239° |
| 2026-05-05 19:10 | 39.49652 | 2.60779 | 3846 ft | 233 kts | 227° |
| 2026-05-05 19:10 | 39.48405 | 2.59533 | 4234 ft | 251 kts | 212° |
| 2026-05-05 19:10 | 39.46816 | 2.58399 | 4754 ft | 264 kts | 211° |
| 2026-05-05 19:11 | 39.45171 | 2.57281 | 5506 ft | 267 kts | 210° |
| 2026-05-05 19:11 | 39.43471 | 2.56238 | 6287 ft | 271 kts | 200° |
| 2026-05-05 19:11 | 39.41516 | 2.56158 | 7051 ft | 283 kts | 168° |
| 2026-05-05 19:11 | 39.39698 | 2.57436 | 7878 ft | 291 kts | 138° |
| 2026-05-05 19:12 | 39.38602 | 2.59666 | 8586 ft | 301 kts | 109° |
| 2026-05-05 19:12 | 39.38454 | 2.62432 | 9261 ft | 308 kts | 85° |
| 2026-05-05 19:12 | 39.38709 | 2.65263 | 9930 ft | 313 kts | 85° |
| 2026-05-05 19:12 | 39.38953 | 2.68105 | 10440 ft | 324 kts | 86° |
| 2026-05-05 19:13 | 39.39187 | 2.71140 | 10752 ft | 341 kts | 86° |
| 2026-05-05 19:13 | 39.39411 | 2.74289 | 11046 ft | 357 kts | 87° |
| 2026-05-05 19:13 | 39.39644 | 2.77690 | 11330 ft | 373 kts | 87° |
| 2026-05-05 19:13 | 39.39873 | 2.81082 | 11736 ft | 383 kts | 87° |
| 2026-05-05 19:14 | 39.40109 | 2.84611 | 12330 ft | 387 kts | 87° |
| 2026-05-05 19:14 | 39.40341 | 2.88102 | 12937 ft | 391 kts | 88° |
| 2026-05-05 19:14 | 39.40579 | 2.91726 | 13490 ft | 395 kts | 88° |
| 2026-05-05 19:14 | 39.40819 | 2.95432 | 14051 ft | 400 kts | 88° |
| 2026-05-05 19:15 | 39.41058 | 2.99135 | 14568 ft | 405 kts | 88° |
| 2026-05-05 19:15 | 39.41304 | 3.02966 | 15108 ft | 409 kts | 88° |
| 2026-05-05 19:15 | 39.41551 | 3.06860 | 15645 ft | 413 kts | 88° |
| 2026-05-05 19:15 | 39.41794 | 3.10656 | 16139 ft | 417 kts | 88° |
| 2026-05-05 19:16 | 39.42035 | 3.14479 | 16624 ft | 421 kts | 88° |
| 2026-05-05 19:16 | 39.42284 | 3.18419 | 17099 ft | 425 kts | 88° |
| 2026-05-05 19:16 | 39.42551 | 3.22281 | 17560 ft | 429 kts | 84° |
| 2026-05-05 19:16 | 39.43272 | 3.26272 | 18028 ft | 435 kts | 71° |
| 2026-05-05 19:17 | 39.44568 | 3.29965 | 18469 ft | 439 kts | 60° |
| 2026-05-05 19:17 | 39.46159 | 3.33459 | 18888 ft | 442 kts | 58° |
| 2026-05-05 19:17 | 39.47847 | 3.37002 | 19327 ft | 446 kts | 57° |
| 2026-05-05 19:17 | 39.49502 | 3.40486 | 19733 ft | 449 kts | 58° |
| 2026-05-05 19:18 | 39.51129 | 3.43959 | 20147 ft | 452 kts | 58° |
| 2026-05-05 19:18 | 39.52785 | 3.47531 | 20565 ft | 455 kts | 58° |
| 2026-05-05 19:18 | 39.54397 | 3.51030 | 20972 ft | 457 kts | 58° |
| 2026-05-05 19:18 | 39.56131 | 3.54805 | 21379 ft | 460 kts | 58° |
| 2026-05-05 19:19 | 39.57808 | 3.58474 | 21758 ft | 464 kts | 58° |
| 2026-05-05 19:19 | 39.59484 | 3.62146 | 22137 ft | 466 kts | 58° |
| 2026-05-05 19:19 | 39.61253 | 3.66020 | 22537 ft | 469 kts | 59° |
| 2026-05-05 19:19 | 39.62965 | 3.69778 | 22870 ft | 473 kts | 59° |
| 2026-05-05 19:20 | 39.64663 | 3.73512 | 23198 ft | 475 kts | 59° |
| 2026-05-05 19:20 | 39.66489 | 3.77531 | 23566 ft | 478 kts | 59° |
| 2026-05-05 19:20 | 39.68214 | 3.81333 | 23930 ft | 480 kts | 59° |
| 2026-05-05 19:20 | 39.70001 | 3.85276 | 24260 ft | 483 kts | 59° |
| 2026-05-05 19:21 | 39.71699 | 3.89025 | 24579 ft | 485 kts | 59° |
| 2026-05-05 19:21 | 39.73440 | 3.92877 | 24872 ft | 488 kts | 59° |
| 2026-05-05 19:21 | 39.75232 | 3.96851 | 25190 ft | 490 kts | 59° |
| 2026-05-05 19:21 | 39.76998 | 4.00767 | 25477 ft | 493 kts | 59° |
| 2026-05-05 19:22 | 39.78828 | 4.04830 | 25786 ft | 495 kts | 59° |
| 2026-05-05 19:22 | 39.80685 | 4.08963 | 26095 ft | 497 kts | 59° |
| 2026-05-05 19:22 | 39.82436 | 4.12866 | 26375 ft | 499 kts | 59° |
| 2026-05-05 19:22 | 39.84075 | 4.16504 | 26614 ft | 501 kts | 58° |
| 2026-05-05 19:23 | 39.86266 | 4.20085 | 26798 ft | 501 kts | 39° |
| 2026-05-05 19:23 | 39.89259 | 4.22570 | 27046 ft | 491 kts | 17° |
| 2026-05-05 19:23 | 39.92538 | 4.23710 | 27342 ft | 482 kts | 4° |
| 2026-05-05 19:23 | 39.95872 | 4.24365 | 27558 ft | 483 kts | 1° |
| 2026-05-05 19:24 | 39.99076 | 4.24930 | 27767 ft | 486 kts | 1° |
| 2026-05-05 19:24 | 40.02603 | 4.25602 | 28020 ft | 488 kts | 2° |
| 2026-05-05 19:24 | 40.05939 | 4.26298 | 28248 ft | 491 kts | 3° |
| 2026-05-05 19:24 | 40.09109 | 4.27001 | 28465 ft | 493 kts | 4° |
| 2026-05-05 19:25 | 40.12503 | 4.27780 | 28655 ft | 495 kts | 4° |
| 2026-05-05 19:25 | 40.15673 | 4.28519 | 28813 ft | 497 kts | 4° |
| 2026-05-05 19:25 | 40.19036 | 4.29313 | 29006 ft | 499 kts | 4° |
| 2026-05-05 19:25 | 40.22491 | 4.30130 | 29260 ft | 499 kts | 4° |
| 2026-05-05 19:26 | 40.25912 | 4.30942 | 29532 ft | 498 kts | 4° |
| 2026-05-05 19:26 | 40.29333 | 4.31754 | 29802 ft | 498 kts | 4° |
| 2026-05-05 19:26 | 40.32782 | 4.32574 | 30048 ft | 498 kts | 4° |
| 2026-05-05 19:26 | 40.36221 | 4.33389 | 30283 ft | 499 kts | 4° |
| 2026-05-05 19:27 | 40.39646 | 4.34202 | 30532 ft | 499 kts | 4° |
| 2026-05-05 19:27 | 40.43028 | 4.35008 | 30810 ft | 498 kts | 4° |
| 2026-05-05 19:27 | 40.46477 | 4.35830 | 31021 ft | 499 kts | 4° |
| 2026-05-05 19:27 | 40.49909 | 4.36648 | 31264 ft | 499 kts | 4° |
| 2026-05-05 19:28 | 40.53470 | 4.37495 | 31542 ft | 499 kts | 4° |
| 2026-05-05 19:28 | 40.56945 | 4.38323 | 31790 ft | 499 kts | 4° |
| 2026-05-05 19:28 | 40.60495 | 4.39171 | 32036 ft | 499 kts | 4° |
| 2026-05-05 19:28 | 40.64024 | 4.40013 | 32244 ft | 500 kts | 4° |
| 2026-05-05 19:29 | 40.67213 | 4.40778 | 32422 ft | 500 kts | 4° |
| 2026-05-05 19:29 | 40.70930 | 4.41668 | 32685 ft | 500 kts | 4° |
| 2026-05-05 19:29 | 40.74473 | 4.42520 | 32938 ft | 500 kts | 4° |
| 2026-05-05 19:29 | 40.77926 | 4.43354 | 33149 ft | 500 kts | 3° |
| 2026-05-05 19:30 | 40.81202 | 4.44141 | 33336 ft | 500 kts | 4° |
| 2026-05-05 19:30 | 40.84750 | 4.44995 | 33524 ft | 501 kts | 4° |
| 2026-05-05 19:30 | 40.88206 | 4.45831 | 33742 ft | 501 kts | 3° |
| 2026-05-05 19:30 | 40.91731 | 4.46682 | 33973 ft | 501 kts | 4° |
| 2026-05-05 19:31 | 40.95307 | 4.47549 | 34176 ft | 501 kts | 4° |
| 2026-05-05 19:31 | 40.98828 | 4.48402 | 34326 ft | 502 kts | 3° |
| 2026-05-05 19:31 | 41.02469 | 4.49287 | 34451 ft | 503 kts | 4° |
| 2026-05-05 19:31 | 41.05951 | 4.50134 | 34596 ft | 504 kts | 4° |
| 2026-05-05 19:32 | 41.09420 | 4.50977 | 34747 ft | 504 kts | 3° |
| 2026-05-05 19:32 | 41.13023 | 4.51851 | 34882 ft | 504 kts | 4° |
| 2026-05-05 19:32 | 41.16117 | 4.52602 | 34986 ft | 504 kts | 4° |
| 2026-05-05 19:32 | 41.19634 | 4.53458 | 35094 ft | 504 kts | 4° |
| 2026-05-05 19:33 | 41.26601 | 4.55157 | 35272 ft | 506 kts | 4° |
| 2026-05-05 19:33 | 41.33582 | 4.56869 | 35471 ft | 506 kts | 4° |
| 2026-05-05 19:34 | 41.40655 | 4.58608 | 35684 ft | 505 kts | 4° |
| 2026-05-05 19:35 | 41.51364 | 4.61243 | 35891 ft | 506 kts | 4° |
| 2026-05-05 19:35 | 41.58744 | 4.63067 | 35896 ft | 507 kts | 4° |
| 2026-05-05 19:36 | 41.65847 | 4.64891 | 35891 ft | 509 kts | 6° |
| 2026-05-05 19:36 | 41.72904 | 4.67662 | 35886 ft | 517 kts | 16° |
| 2026-05-05 19:37 | 41.79740 | 4.71770 | 35891 ft | 522 kts | 25° |
| 2026-05-05 19:37 | 41.86153 | 4.76824 | 35893 ft | 524 kts | 28° |
| 2026-05-05 19:38 | 41.92483 | 4.82014 | 35886 ft | 525 kts | 28° |
| 2026-05-05 19:38 | 41.98911 | 4.87242 | 35887 ft | 526 kts | 28° |
| 2026-05-05 19:39 | 42.05276 | 4.92405 | 35889 ft | 526 kts | 28° |
| 2026-05-05 19:39 | 42.11554 | 4.97502 | 35883 ft | 525 kts | 28° |
| 2026-05-05 19:40 | 42.17690 | 5.02493 | 35888 ft | 526 kts | 27° |
| 2026-05-05 19:40 | 42.23976 | 5.07618 | 35883 ft | 526 kts | 28° |
| 2026-05-05 19:41 | 42.30214 | 5.12711 | 35891 ft | 526 kts | 28° |
| 2026-05-05 19:41 | 42.36483 | 5.17845 | 35899 ft | 526 kts | 28° |
| 2026-05-05 19:42 | 42.42746 | 5.22987 | 35913 ft | 526 kts | 28° |
| 2026-05-05 19:42 | 42.48871 | 5.28029 | 35906 ft | 527 kts | 28° |
| 2026-05-05 19:43 | 42.54832 | 5.32946 | 35906 ft | 527 kts | 28° |
| 2026-05-05 19:43 | 42.61246 | 5.38248 | 35916 ft | 526 kts | 28° |
| 2026-05-05 19:44 | 42.67507 | 5.43437 | 35906 ft | 527 kts | 28° |
| 2026-05-05 19:44 | 42.73672 | 5.48560 | 35905 ft | 526 kts | 28° |
| 2026-05-05 19:45 | 42.79948 | 5.53783 | 35904 ft | 526 kts | 28° |
| 2026-05-05 19:45 | 42.86196 | 5.59005 | 35904 ft | 525 kts | 28° |
| 2026-05-05 19:46 | 42.92393 | 5.64183 | 35897 ft | 527 kts | 28° |
| 2026-05-05 19:46 | 42.98651 | 5.69435 | 35901 ft | 527 kts | 29° |
| 2026-05-05 19:47 | 43.04928 | 5.74714 | 35907 ft | 527 kts | 29° |
| 2026-05-05 19:47 | 43.11151 | 5.79959 | 35899 ft | 527 kts | 29° |
| 2026-05-05 19:48 | 43.17284 | 5.85147 | 35910 ft | 527 kts | 29° |
| 2026-05-05 19:48 | 43.23483 | 5.90401 | 35912 ft | 527 kts | 29° |
| 2026-05-05 19:49 | 43.29586 | 5.95586 | 35907 ft | 526 kts | 29° |
| 2026-05-05 19:49 | 43.35766 | 6.00333 | 35914 ft | 521 kts | 21° |
| 2026-05-05 19:50 | 43.42542 | 6.03662 | 35931 ft | 514 kts | 9° |
| 2026-05-05 19:50 | 43.49511 | 6.05255 | 35914 ft | 505 kts | 358° |
| 2026-05-05 19:51 | 43.56519 | 6.05870 | 35913 ft | 505 kts | 357° |
| 2026-05-05 19:51 | 43.63559 | 6.06492 | 35906 ft | 505 kts | 357° |
| 2026-05-05 19:52 | 43.70611 | 6.07339 | 35909 ft | 509 kts | 2° |
| 2026-05-05 19:52 | 43.77576 | 6.09309 | 35921 ft | 517 kts | 11° |
| 2026-05-05 19:53 | 43.84382 | 6.12688 | 35915 ft | 521 kts | 20° |
| 2026-05-05 19:53 | 43.90915 | 6.17090 | 35929 ft | 523 kts | 24° |
| 2026-05-05 19:54 | 43.97440 | 6.21656 | 35922 ft | 522 kts | 23° |
| 2026-05-05 19:54 | 44.03920 | 6.26119 | 35920 ft | 522 kts | 23° |
| 2026-05-05 19:55 | 44.10433 | 6.30600 | 35927 ft | 523 kts | 23° |
| 2026-05-05 19:55 | 44.16948 | 6.35093 | 35942 ft | 520 kts | 23° |
| 2026-05-05 19:56 | 44.23431 | 6.39560 | 35949 ft | 519 kts | 23° |
| 2026-05-05 19:56 | 44.29894 | 6.44022 | 35955 ft | 519 kts | 23° |
| 2026-05-05 19:57 | 44.36360 | 6.48507 | 35962 ft | 518 kts | 23° |
| 2026-05-05 19:57 | 44.42827 | 6.53008 | 35964 ft | 518 kts | 23° |
| 2026-05-05 19:58 | 44.49237 | 6.57473 | 35972 ft | 517 kts | 23° |
| 2026-05-05 19:58 | 44.55650 | 6.61948 | 35970 ft | 516 kts | 23° |
| 2026-05-05 19:59 | 44.62064 | 6.66426 | 35961 ft | 517 kts | 24° |
| 2026-05-05 19:59 | 44.68517 | 6.70968 | 35970 ft | 517 kts | 24° |
| 2026-05-05 20:00 | 44.75039 | 6.75204 | 35985 ft | 514 kts | 17° |
| 2026-05-05 20:00 | 44.81843 | 6.77823 | 35989 ft | 506 kts | 5° |
| 2026-05-05 20:01 | 44.88817 | 6.78616 | 35968 ft | 497 kts | 353° |
| 2026-05-05 20:01 | 44.95689 | 6.78167 | 35967 ft | 495 kts | 351° |
| 2026-05-05 20:02 | 45.02528 | 6.77619 | 35958 ft | 496 kts | 351° |
| 2026-05-05 20:02 | 45.09432 | 6.77134 | 35963 ft | 493 kts | 352° |
| 2026-05-05 20:03 | 45.16259 | 6.76671 | 35948 ft | 493 kts | 352° |
| 2026-05-05 20:03 | 45.23051 | 6.76219 | 35957 ft | 493 kts | 352° |
| 2026-05-05 20:04 | 45.29277 | 6.75805 | 35956 ft | 493 kts | 352° |
| 2026-05-05 20:04 | 45.36142 | 6.75344 | 35961 ft | 495 kts | 352° |
| 2026-05-05 20:05 | 45.43011 | 6.74883 | 35953 ft | 493 kts | 352° |
| 2026-05-05 20:05 | 45.49840 | 6.74424 | 35952 ft | 492 kts | 352° |
| 2026-05-05 20:06 | 45.56740 | 6.73947 | 35962 ft | 493 kts | 353° |
| 2026-05-05 20:06 | 45.63572 | 6.73480 | 35950 ft | 492 kts | 352° |
| 2026-05-05 20:07 | 45.70437 | 6.73007 | 35942 ft | 492 kts | 353° |
| 2026-05-05 20:07 | 45.77290 | 6.72539 | 35932 ft | 491 kts | 353° |
| 2026-05-05 20:08 | 45.84080 | 6.72070 | 35934 ft | 492 kts | 353° |
| 2026-05-05 20:08 | 45.90891 | 6.71609 | 35921 ft | 491 kts | 353° |
| 2026-05-05 20:09 | 45.97717 | 6.71146 | 35924 ft | 491 kts | 353° |
| 2026-05-05 20:09 | 46.04510 | 6.70686 | 35919 ft | 491 kts | 353° |
| 2026-05-05 20:10 | 46.11258 | 6.69711 | 35925 ft | 486 kts | 346° |
| 2026-05-05 20:10 | 46.17790 | 6.67615 | 35932 ft | 482 kts | 339° |
| 2026-05-05 20:10 | 46.20934 | 6.66196 | 36205 ft | 480 kts | 337° |
| 2026-05-05 20:11 | 46.24084 | 6.64662 | 36061 ft | 478 kts | 336° |
| 2026-05-05 20:11 | 46.30311 | 6.61584 | 35970 ft | 477 kts | 336° |
| 2026-05-05 20:12 | 46.36581 | 6.58496 | 35944 ft | 477 kts | 337° |
| 2026-05-05 20:12 | 46.42849 | 6.55422 | 35930 ft | 477 kts | 337° |
| 2026-05-05 20:13 | 46.49104 | 6.52353 | 35913 ft | 477 kts | 337° |
| 2026-05-05 20:13 | 46.55431 | 6.49243 | 35906 ft | 477 kts | 337° |
| 2026-05-05 20:14 | 46.61685 | 6.46162 | 35908 ft | 477 kts | 337° |
| 2026-05-05 20:14 | 46.67975 | 6.43053 | 35906 ft | 477 kts | 338° |
| 2026-05-05 20:15 | 46.74247 | 6.39948 | 35904 ft | 477 kts | 338° |
| 2026-05-05 20:15 | 46.80535 | 6.36827 | 35901 ft | 476 kts | 338° |
| 2026-05-05 20:16 | 46.86754 | 6.33732 | 35895 ft | 475 kts | 337° |
| 2026-05-05 20:16 | 46.92993 | 6.30622 | 35893 ft | 475 kts | 338° |
| 2026-05-05 20:17 | 46.99210 | 6.27510 | 35891 ft | 475 kts | 338° |
| 2026-05-05 20:17 | 47.05230 | 6.24414 | 35887 ft | 473 kts | 335° |
| 2026-05-05 20:18 | 47.11197 | 6.20520 | 35885 ft | 472 kts | 333° |
| 2026-05-05 20:18 | 47.14291 | 6.18961 | 35878 ft | 476 kts | 344° |
| 2026-05-05 20:18 | 47.17577 | 6.18188 | 35884 ft | 479 kts | 352° |
| 2026-05-05 20:19 | 47.24250 | 6.17519 | 35883 ft | 480 kts | 354° |
| 2026-05-05 20:19 | 47.30618 | 6.16932 | 35880 ft | 479 kts | 354° |
| 2026-05-05 20:20 | 47.37280 | 6.16254 | 35881 ft | 479 kts | 354° |
| 2026-05-05 20:20 | 47.43920 | 6.15548 | 35882 ft | 479 kts | 354° |
| 2026-05-05 20:21 | 47.50333 | 6.14853 | 35874 ft | 478 kts | 354° |
| 2026-05-05 20:21 | 47.56915 | 6.14140 | 35867 ft | 478 kts | 354° |
| 2026-05-05 20:22 | 47.63509 | 6.13422 | 35868 ft | 478 kts | 354° |
| 2026-05-05 20:22 | 47.70065 | 6.12707 | 35869 ft | 477 kts | 354° |
| 2026-05-05 20:23 | 47.76672 | 6.11982 | 35867 ft | 477 kts | 354° |
| 2026-05-05 20:23 | 47.83296 | 6.11254 | 35866 ft | 477 kts | 354° |
| 2026-05-05 20:24 | 47.89935 | 6.10523 | 35858 ft | 476 kts | 354° |
| 2026-05-05 20:24 | 47.96501 | 6.09799 | 35856 ft | 476 kts | 354° |
| 2026-05-05 20:25 | 48.03079 | 6.09073 | 35854 ft | 475 kts | 354° |
| 2026-05-05 20:25 | 48.09691 | 6.08340 | 35861 ft | 475 kts | 354° |
| 2026-05-05 20:26 | 48.16038 | 6.07635 | 35853 ft | 475 kts | 354° |
| 2026-05-05 20:26 | 48.22588 | 6.06907 | 35854 ft | 476 kts | 354° |
| 2026-05-05 20:27 | 48.29181 | 6.06167 | 35863 ft | 476 kts | 355° |
| 2026-05-05 20:27 | 48.35777 | 6.06040 | 35854 ft | 476 kts | 1° |
| 2026-05-05 20:28 | 48.42422 | 6.06395 | 35866 ft | 476 kts | 2° |
| 2026-05-05 20:28 | 48.49007 | 6.06747 | 35850 ft | 475 kts | 1° |
| 2026-05-05 20:29 | 48.55607 | 6.07073 | 35845 ft | 475 kts | 1° |
| 2026-05-05 20:29 | 48.62217 | 6.07389 | 35842 ft | 475 kts | 1° |
| 2026-05-05 20:30 | 48.68834 | 6.07702 | 35844 ft | 475 kts | 1° |
| 2026-05-05 20:30 | 48.75403 | 6.08016 | 35837 ft | 475 kts | 2° |
| 2026-05-05 20:31 | 48.82003 | 6.08332 | 35846 ft | 475 kts | 2° |
| 2026-05-05 20:31 | 48.88557 | 6.08647 | 35836 ft | 474 kts | 2° |
| 2026-05-05 20:32 | 48.95121 | 6.08963 | 35840 ft | 473 kts | 2° |
| 2026-05-05 20:32 | 49.01683 | 6.09279 | 35843 ft | 472 kts | 2° |
| 2026-05-05 20:33 | 49.08232 | 6.09593 | 35834 ft | 473 kts | 2° |
| 2026-05-05 20:33 | 49.14787 | 6.09911 | 35846 ft | 474 kts | 2° |
| 2026-05-05 20:34 | 49.21382 | 6.10233 | 35837 ft | 474 kts | 2° |
| 2026-05-05 20:34 | 49.27956 | 6.10553 | 35848 ft | 474 kts | 2° |
| 2026-05-05 20:35 | 49.34531 | 6.10874 | 35830 ft | 474 kts | 2° |
| 2026-05-05 20:35 | 49.41038 | 6.11195 | 35836 ft | 473 kts | 2° |
| 2026-05-05 20:36 | 49.47572 | 6.11516 | 35845 ft | 473 kts | 2° |
| 2026-05-05 20:36 | 49.54130 | 6.11777 | 35847 ft | 473 kts | 2° |
| 2026-05-05 20:37 | 49.60648 | 6.12016 | 35828 ft | 474 kts | 2° |
| 2026-05-05 20:37 | 49.67239 | 6.12263 | 35821 ft | 474 kts | 2° |
| 2026-05-05 20:38 | 49.73765 | 6.12518 | 35829 ft | 474 kts | 2° |
| 2026-05-05 20:38 | 49.80329 | 6.13030 | 35837 ft | 473 kts | 8° |
| 2026-05-05 20:39 | 49.86725 | 6.15197 | 35807 ft | 469 kts | 23° |
| 2026-05-05 20:39 | 49.92535 | 6.19607 | 35833 ft | 466 kts | 30° |
| 2026-05-05 20:40 | 49.98235 | 6.24344 | 35817 ft | 466 kts | 31° |
| 2026-05-05 20:40 | 50.03883 | 6.29017 | 35811 ft | 465 kts | 31° |
| 2026-05-05 20:41 | 50.09604 | 6.33727 | 35806 ft | 465 kts | 30° |
| 2026-05-05 20:41 | 50.15300 | 6.38419 | 35823 ft | 466 kts | 31° |
| 2026-05-05 20:42 | 50.21038 | 6.43150 | 35812 ft | 466 kts | 30° |
| 2026-05-05 20:42 | 50.26770 | 6.47888 | 35819 ft | 468 kts | 31° |
| 2026-05-05 20:43 | 50.32442 | 6.52593 | 35816 ft | 468 kts | 31° |
| 2026-05-05 20:43 | 50.38164 | 6.57348 | 35818 ft | 467 kts | 31° |
| 2026-05-05 20:44 | 50.43805 | 6.62053 | 35629 ft | 467 kts | 31° |
| 2026-05-05 20:44 | 50.46671 | 6.64449 | 35865 ft | 468 kts | 31° |
| 2026-05-05 20:44 | 50.49524 | 6.66835 | 35694 ft | 468 kts | 31° |
| 2026-05-05 20:45 | 50.57807 | 6.73772 | 34728 ft | 468 kts | 32° |
| 2026-05-05 20:45 | 50.60583 | 6.76105 | 33905 ft | 470 kts | 32° |
| 2026-05-05 20:45 | 50.63248 | 6.78353 | 33138 ft | 472 kts | 32° |
| 2026-05-05 20:46 | 50.66146 | 6.80805 | 32303 ft | 473 kts | 32° |
| 2026-05-05 20:46 | 50.69024 | 6.83237 | 31458 ft | 473 kts | 32° |
| 2026-05-05 20:46 | 50.71883 | 6.85655 | 30584 ft | 474 kts | 32° |
| 2026-05-05 20:46 | 50.74793 | 6.88126 | 29577 ft | 475 kts | 32° |
| 2026-05-05 20:47 | 50.77680 | 6.90580 | 28489 ft | 477 kts | 32° |
| 2026-05-05 20:47 | 50.80581 | 6.93046 | 27505 ft | 476 kts | 31° |
| 2026-05-05 20:47 | 50.83429 | 6.95468 | 26839 ft | 469 kts | 31° |
| 2026-05-05 20:47 | 50.86288 | 6.97900 | 26245 ft | 461 kts | 31° |
| 2026-05-05 20:48 | 50.89061 | 7.00260 | 25688 ft | 453 kts | 31° |
| 2026-05-05 20:48 | 50.91795 | 7.02593 | 25141 ft | 446 kts | 31° |
| 2026-05-05 20:48 | 50.94479 | 7.04888 | 24604 ft | 440 kts | 31° |
| 2026-05-05 20:48 | 50.97169 | 7.07194 | 24067 ft | 434 kts | 30° |
| 2026-05-05 20:49 | 50.99242 | 7.08973 | 23668 ft | 429 kts | 30° |